Time;durP1;ratioP1;P1;durP2;ratioP2;P2;SDS_P1;SDS_P2;PMS_P1;PMS_P2;Temp;Humidity;BMP_temperature;BMP_pressure;BME280_temperature;BME280_humidity;BME280_pressure;Samples;Min_cycle;Max_cycle;Signal;HPM_P1;HPM_P2
2023/02/22 00:03:59;;;;;;;27.10;18.65;;;;;;;5.93;100.00;100363.34;5071883;28;20072;-80
2023/02/22 00:06:26;;;;;;;32.55;19.67;;;;;;;6.09;100.00;100376.03;5071164;28;20047;-80
2023/02/22 00:08:54;;;;;;;26.63;18.63;;;;;;;5.50;100.00;100286.63;5071342;28;20058;-78
2023/02/22 00:11:20;;;;;;;31.05;18.92;;;;;;;5.65;100.00;100309.81;5065124;28;20052;-80
2023/02/22 00:13:49;;;;;;;28.33;18.63;;;;;;;6.04;100.00;100377.94;5070807;28;20052;-79
2023/02/22 00:16:19;;;;;;;30.88;18.38;;;;;;;5.24;100.00;100247.94;5068715;28;20036;-79
2023/02/22 00:18:47;;;;;;;33.90;20.35;;;;;;;5.41;100.00;100269.34;5065482;28;20056;-80
2023/02/22 00:21:15;;;;;;;28.23;19.50;;;;;;;5.36;100.00;100265.97;5064431;28;20497;-79
2023/02/22 00:23:48;;;;;;;31.63;19.63;;;;;;;5.95;100.00;100369.44;5065614;28;20048;-80
2023/02/22 00:26:19;;;;;;;30.20;20.45;;;;;;;5.88;100.00;100353.81;5068161;28;20148;-80
2023/02/22 00:28:48;;;;;;;32.90;20.75;;;;;;;5.94;100.00;100364.22;5070147;28;20475;-79
2023/02/22 00:31:15;;;;;;;31.38;19.85;;;;;;;5.76;100.00;100344.53;5067687;28;20048;-79
2023/02/22 00:33:42;;;;;;;29.98;19.45;;;;;;;5.94;100.00;100365.06;5073528;28;20051;-81
2023/02/22 00:36:11;;;;;;;48.97;34.97;;;;;;;5.97;100.00;100367.63;5068347;28;20055;-81
2023/02/22 00:38:38;;;;;;;28.98;19.40;;;;;;;5.98;100.00;100366.69;5063075;28;20095;-82
2023/02/22 00:41:06;;;;;;;33.25;19.88;;;;;;;5.28;100.00;100253.06;5050317;28;20551;-80
2023/02/22 00:43:33;;;;;;;30.23;19.08;;;;;;;5.94;100.00;100362.44;5051517;28;20135;-80
2023/02/22 00:46:00;;;;;;;31.65;19.75;;;;;;;5.85;100.00;100357.41;5069140;28;20075;-79
2023/02/22 00:48:27;;;;;;;27.60;18.77;;;;;;;5.78;100.00;100355.88;5069837;28;20048;-80
2023/02/22 00:50:56;;;;;;;26.30;18.42;;;;;;;5.74;100.00;100340.22;5063423;28;20424;-81
2023/02/22 00:53:24;;;;;;;28.95;19.50;;;;;;;5.46;100.00;100301.59;5066927;28;20052;-80
2023/02/22 00:55:52;;;;;;;33.55;18.80;;;;;;;5.79;100.00;100357.59;5067602;28;20845;-79
2023/02/22 00:58:19;;;;;;;27.05;19.08;;;;;;;5.21;100.00;100269.00;5068556;28;20144;-81
2023/02/22 01:00:46;;;;;;;27.83;18.42;;;;;;;5.60;100.00;100328.34;5067594;28;20044;-81
2023/02/22 01:03:17;;;;;;;30.67;18.45;;;;;;;5.74;100.00;100353.34;5067895;28;20144;-81
2023/02/22 01:05:44;;;;;;;29.80;18.63;;;;;;;5.14;100.00;100263.09;5070220;28;20056;-82
2023/02/22 01:08:15;;;;;;;26.63;18.75;;;;;;;5.53;100.00;100331.16;5070548;28;20048;-82
2023/02/22 01:10:43;;;;;;;30.55;18.77;;;;;;;5.62;100.00;100341.44;5063915;28;20062;-81
2023/02/22 01:13:11;;;;;;;33.75;18.60;;;;;;;5.59;100.00;100339.75;5070339;28;20056;-80
2023/02/22 01:15:41;;;;;;;30.73;18.60;;;;;;;5.32;100.00;100293.22;5049937;28;20060;-80
2023/02/22 01:18:11;;;;;;;28.70;18.27;;;;;;;5.31;100.00;100296.75;5065681;28;20524;-79
2023/02/22 01:20:38;;;;;;;29.77;18.33;;;;;;;5.45;100.00;100317.38;5069006;28;20060;-80
2023/02/22 01:23:06;;;;;;;27.48;18.38;;;;;;;5.53;100.00;100323.28;5069941;28;20048;-81
2023/02/22 01:25:34;;;;;;;26.70;18.35;;;;;;;5.50;100.00;100319.00;5069049;28;20063;-81
2023/02/22 01:28:03;;;;;;;28.67;17.65;;;;;;;5.12;100.00;100269.28;5067211;28;20155;-80
2023/02/22 01:30:32;;;;;;;27.48;18.70;;;;;;;5.26;100.00;100293.38;5051395;28;20059;-83
2023/02/22 01:33:01;;;;;;;30.55;19.77;;;;;;;5.43;100.00;100327.06;5070234;28;20078;-83
2023/02/22 01:35:32;;;;;;;28.85;18.65;;;;;;;4.90;100.00;100232.22;5065095;28;20082;-82
2023/02/22 01:37:59;;;;;;;27.67;18.83;;;;;;;5.26;100.00;100296.88;5072196;28;20351;-79
2023/02/22 01:40:34;;;;;;;32.25;20.35;;;;;;;5.30;100.00;100300.28;5073126;28;20410;-79
2023/02/22 01:43:05;;;;;;;33.75;19.35;;;;;;;4.44;100.00;100160.00;5067776;28;20079;-80
2023/02/22 01:45:31;;;;;;;;;;;;;;;5.45;100.00;100315.63;5064697;28;20076;-80
2023/02/22 01:48:11;;;;;;;30.80;18.88;;;;;;;5.31;100.00;100295.91;5070994;28;19924;-80
2023/02/22 01:50:44;;;;;;;30.13;18.92;;;;;;;5.09;100.00;100257.09;5070018;28;20164;-81
2023/02/22 01:53:15;;;;;;;28.80;19.05;;;;;;;5.18;100.00;100283.09;5073562;28;20246;-82
2023/02/22 01:55:43;;;;;;;29.40;18.42;;;;;;;5.30;100.00;100305.53;5065618;28;20059;-82
2023/02/22 01:58:10;;;;;;;34.22;19.67;;;;;;;4.93;100.00;100234.78;5073510;28;20140;-82
2023/02/22 02:00:38;;;;;;;29.42;19.05;;;;;;;4.85;100.00;100228.88;5073922;28;20056;-81
2023/02/22 02:03:13;;;;;;;27.02;18.63;;;;;;;5.26;100.00;100299.50;5072482;28;20052;-80
2023/02/22 02:05:41;;;;;;;28.70;18.15;;;;;;;4.87;100.00;100233.19;5068815;28;20473;-82
2023/02/22 02:08:18;;;;;;;27.90;19.23;;;;;;;4.31;100.00;100148.09;5070236;28;20449;-79
2023/02/22 02:10:46;;;;;;;25.48;18.02;;;;;;;4.83;100.00;100233.31;5069373;28;20052;-80
2023/02/22 02:13:15;;;;;;;32.92;19.23;;;;;;;5.09;100.00;100278.09;5070535;28;20135;-78
2023/02/22 02:15:41;;;;;;;30.73;20.25;;;;;;;5.00;100.00;100262.59;5064914;28;20048;-80
2023/02/22 02:18:10;;;;;;;29.15;19.27;;;;;;;5.06;100.00;100275.53;5064603;28;20135;-80
2023/02/22 02:21:01;;;;;;;30.45;20.10;;;;;;;4.66;100.00;100212.75;5070876;28;20044;-80
2023/02/22 02:23:50;;;;;;;35.17;19.92;;;;;;;5.14;100.00;100284.09;5058749;28;20084;-81
2023/02/22 02:26:39;;;;;;;30.98;19.92;;;;;;;4.39;100.00;100158.41;5069980;28;20048;-81
2023/02/22 02:29:15;;;;;;;31.55;20.67;;;;;;;5.09;100.00;100282.47;5059183;28;20058;-83
2023/02/22 02:32:14;;;;;;;31.45;21.02;;;;;;;5.06;100.00;100275.53;5068292;28;20237;-81
2023/02/22 02:35:05;;;;;;;32.65;20.60;;;;;;;5.05;100.00;100279.06;5061755;28;20459;-82
2023/02/22 02:37:57;;;;;;;32.88;20.27;;;;;;;4.70;100.00;100214.41;5071463;28;20491;-80
2023/02/22 02:40:35;;;;;;;30.10;20.98;;;;;;;4.40;100.00;100157.50;5071897;28;20048;-80
2023/02/22 02:43:29;;;;;;;35.85;22.20;;;;;;;4.19;100.00;100127.44;5071136;28;20044;-80
2023/02/22 02:46:07;;;;;;;34.58;21.90;;;;;;;4.97;100.00;100270.53;5048704;28;20140;-80
2023/02/22 02:48:38;;;;;;;32.45;21.23;;;;;;;4.90;100.00;100268.97;5052875;28;20481;-82
2023/02/22 02:51:09;;;;;;;34.83;21.88;;;;;;;4.69;100.00;100230.19;5071870;28;20136;-81
2023/02/22 02:53:37;;;;;;;;;;;;;;;4.98;100.00;100260.91;5064973;28;20148;-81
2023/02/22 02:56:04;;;;;;;31.77;21.17;;;;;;;4.82;100.00;100237.69;5070108;28;19920;-79
2023/02/22 02:58:31;;;;;;;33.50;21.83;;;;;;;4.42;100.00;100177.50;5069296;28;20136;-80
2023/02/22 03:01:03;;;;;;;33.05;21.92;;;;;;;4.90;100.00;100261.94;5071561;28;20055;-79
2023/02/22 03:03:50;;;;;;;32.22;21.73;;;;;;;4.29;100.00;100167.38;5071666;28;20466;-79
2023/02/22 03:06:46;;;;;;;33.85;21.50;;;;;;;4.95;100.00;100253.97;5069196;28;20067;-81
2023/02/22 03:09:39;;;;;;;34.65;22.48;;;;;;;4.86;100.00;100230.59;5069155;28;20135;-80
2023/02/22 03:12:12;;;;;;;36.28;22.75;;;;;;;5.04;100.00;100260.72;5062526;28;20051;-79
2023/02/22 03:14:49;;;;;;;36.72;22.67;;;;;;;4.26;100.00;100139.47;5069665;28;20613;-79
2023/02/22 03:17:25;;;;;;;32.60;21.63;;;;;;;4.21;100.00;100146.63;5070923;28;20083;-79
2023/02/22 03:20:16;;;;;;;33.67;23.02;;;;;;;4.54;100.00;100210.44;5071979;28;20056;-81
2023/02/22 03:22:56;;;;;;;37.78;24.40;;;;;;;4.72;100.00;100233.56;5065131;28;20482;-80
2023/02/22 03:25:38;;;;;;;36.22;24.27;;;;;;;4.80;100.00;100246.50;5063402;28;20121;-82
2023/02/22 03:28:10;;;;;;;37.22;24.60;;;;;;;3.74;100.00;100064.81;5072320;28;20048;-81
2023/02/22 03:30:45;;;;;;;39.05;25.25;;;;;;;4.74;100.00;100220.41;5069631;28;20062;-80
2023/02/22 03:33:22;;;;;;;40.03;26.38;;;;;;;4.46;100.00;100183.56;5068661;28;20231;-81
2023/02/22 03:35:55;;;;;;;38.25;25.73;;;;;;;4.71;100.00;100231.00;5071952;28;20068;-80
2023/02/22 03:38:27;;;;;;;35.28;24.75;;;;;;;4.34;100.00;100178.63;5071954;28;20052;-80
2023/02/22 03:40:58;;;;;;;36.45;24.80;;;;;;;4.02;100.00;100127.00;5066124;28;20127;-80
2023/02/22 03:43:37;;;;;;;36.80;25.38;;;;;;;3.82;100.00;100093.44;5064813;28;20497;-81
2023/02/22 03:46:05;;;;;;;35.97;24.45;;;;;;;4.42;100.00;100201.13;5065485;28;20124;-80
2023/02/22 03:48:42;;;;;;;34.75;24.40;;;;;;;4.67;100.00;100224.09;5070006;28;20072;-81
2023/02/22 03:51:13;;;;;;;33.15;23.75;;;;;;;4.66;100.00;100230.25;5072509;28;20052;-82
2023/02/22 03:53:46;;;;;;;36.33;25.38;;;;;;;3.58;100.00;100039.06;5064151;28;20048;-80
2023/02/22 03:56:19;;;;;;;36.47;24.63;;;;;;;4.52;100.00;100201.75;5072745;28;20048;-81
2023/02/22 03:58:48;;;;;;;34.20;24.65;;;;;;;4.65;100.00;100225.91;5066488;28;20135;-80
2023/02/22 04:01:15;;;;;;;35.08;24.17;;;;;;;4.53;100.00;100212.22;5073752;28;20127;-81
2023/02/22 04:03:42;;;;;;;38.78;23.98;;;;;;;4.38;100.00;100201.25;5065253;28;20471;-80
2023/02/22 04:06:09;;;;;;;33.13;24.33;;;;;;;4.18;100.00;100167.66;5073336;28;20079;-82
2023/02/22 04:08:36;;;;;;;35.10;23.75;;;;;;;4.50;100.00;100212.28;5072624;28;20051;-80
2023/02/22 04:11:03;;;;;;;33.63;24.40;;;;;;;3.80;100.00;100106.56;5072865;28;20068;-81
2023/02/22 04:13:29;;;;;;;31.40;23.38;;;;;;;4.37;100.00;100220.50;5068416;28;20560;-82
2023/02/22 04:15:56;;;;;;;31.63;22.50;;;;;;;3.83;100.00;100129.19;5071030;28;20139;-79
2023/02/22 04:18:23;;;;;;;33.13;22.85;;;;;;;3.25;100.00;100041.56;5072724;28;20486;-80
2023/02/22 04:20:50;;;;;;;30.70;21.58;;;;;;;3.46;100.00;100089.94;5054829;28;20078;-81
2023/02/22 04:23:17;;;;;;;31.27;21.60;;;;;;;3.67;100.00;100136.56;5072544;28;20139;-80
2023/02/22 04:25:43;;;;;;;32.90;21.85;;;;;;;3.78;100.00;100165.97;5072312;28;20053;-80
2023/02/22 04:28:10;;;;;;;32.17;21.33;;;;;;;4.09;100.00;100217.69;5072247;28;20047;-80
2023/02/22 04:30:37;;;;;;;30.63;21.27;;;;;;;3.74;100.00;100177.44;5070085;28;20054;-81
2023/02/22 04:33:04;;;;;;;31.83;20.33;;;;;;;3.84;100.00;100207.75;5065909;28;20411;-82
2023/02/22 04:35:30;;;;;;;29.05;20.17;;;;;;;3.68;100.00;100182.78;5070055;28;20132;-80
2023/02/22 04:38:01;;;;;;;27.85;20.17;;;;;;;3.89;100.00;100223.38;5071732;28;20044;-81
2023/02/22 04:40:27;;;;;;;32.00;21.23;;;;;;;3.27;100.00;100122.66;5071495;28;20084;-82
2023/02/22 04:42:54;;;;;;;27.23;19.60;;;;;;;3.62;100.00;100193.41;5071637;28;20064;-81
2023/02/22 04:45:21;;;;;;;29.15;19.63;;;;;;;3.75;100.00;100210.59;5071211;28;20086;-81
2023/02/22 04:47:48;;;;;;;30.40;19.67;;;;;;;3.46;100.00;100163.25;5071795;28;20134;-80
2023/02/22 04:50:15;;;;;;;32.88;20.42;;;;;;;3.72;100.00;100207.16;5071370;28;20052;-79
2023/02/22 04:52:42;;;;;;;29.63;19.95;;;;;;;3.70;100.00;100206.34;5063501;28;20058;-80
2023/02/22 04:55:08;;;;;;;31.80;20.05;;;;;;;3.41;100.00;100163.31;5070829;28;20099;-80
2023/02/22 04:57:35;;;;;;;29.35;19.45;;;;;;;3.44;100.00;100168.50;5070237;28;20052;-81
2023/02/22 05:00:04;;;;;;;29.10;19.23;;;;;;;3.67;100.00;100204.63;5075807;28;20094;-80
2023/02/22 05:02:31;;;;;;;31.50;19.55;;;;;;;3.41;100.00;100159.84;5071876;28;20147;-80
2023/02/22 05:04:57;;;;;;;27.70;19.10;;;;;;;3.08;100.00;100101.25;5072365;28;20634;-81
2023/02/22 05:07:24;;;;;;;29.23;19.73;;;;;;;3.08;100.00;100103.84;5051474;28;20046;-81
2023/02/22 05:09:51;;;;;;;31.33;20.02;;;;;;;3.55;100.00;100181.34;5071844;28;20067;-81
2023/02/22 05:12:17;;;;;;;28.67;18.65;;;;;;;3.66;100.00;100200.28;5073206;28;20515;-80
2023/02/22 05:14:44;;;;;;;29.67;18.85;;;;;;;2.46;100.00;100010.13;5079447;28;20044;-80
2023/02/22 05:17:11;;;;;;;28.35;19.70;;;;;;;3.59;100.00;100209.19;5075535;28;20051;-82
2023/02/22 05:19:38;;;;;;;28.63;18.95;;;;;;;3.53;100.00;100202.31;5075586;28;20049;-80
2023/02/22 05:22:05;;;;;;;26.02;18.33;;;;;;;3.50;100.00;100206.75;5075054;28;20121;-81
2023/02/22 05:24:31;;;;;;;37.65;18.95;;;;;;;3.44;100.00;100199.91;5074741;28;20048;-81
2023/02/22 05:26:58;;;;;;;25.92;17.90;;;;;;;2.36;100.00;100024.25;5067832;28;20737;-80
2023/02/22 05:29:25;;;;;;;25.92;17.98;;;;;;;3.08;100.00;100148.34;5080667;28;20048;-81
2023/02/22 05:31:52;;;;;;;25.58;17.67;;;;;;;2.89;100.00;100136.50;5079140;28;20059;-80
2023/02/22 05:34:18;;;;;;;26.38;17.58;;;;;;;2.93;100.00;100144.28;5085862;28;20052;-82
2023/02/22 05:36:45;;;;;;;26.88;18.90;;;;;;;3.23;100.00;100204.72;5078659;28;20060;-82
2023/02/22 05:39:12;;;;;;;31.77;18.65;;;;;;;3.20;100.00;100204.78;5084327;28;20040;-82
2023/02/22 05:41:38;;;;;;;31.77;18.00;;;;;;;2.62;100.00;100112.63;5082967;28;20049;-81
2023/02/22 05:44:05;;;;;;;37.10;19.05;;;;;;;3.13;100.00;100198.81;5081070;28;20052;-80
2023/02/22 05:46:32;;;;;;;37.08;20.90;;;;;;;2.80;100.00;100143.66;5084665;28;20060;-83
2023/02/22 05:48:59;;;;;;;39.00;20.38;;;;;;;2.65;100.00;100135.25;5087740;28;20044;-82
2023/02/22 05:51:25;;;;;;;35.13;19.30;;;;;;;2.67;100.00;100136.09;5091812;28;20071;-82
2023/02/22 05:53:52;;;;;;;29.92;19.17;;;;;;;2.47;100.00;100098.09;5092023;28;20037;-82
2023/02/22 05:56:24;;;;;;;28.60;20.13;;;;;;;2.80;100.00;100150.63;5094162;28;20072;-82
2023/02/22 05:58:50;;;;;;;33.58;20.58;;;;;;;3.09;100.00;100194.53;5081583;28;20264;-83
2023/02/22 06:01:18;;;;;;;39.10;21.05;;;;;;;3.05;100.00;100193.72;5075967;28;20059;-80
2023/02/22 06:03:49;;;;;;;42.05;22.05;;;;;;;2.03;100.00;100027.53;5090740;28;20033;-81
2023/02/22 06:06:17;;;;;;;38.88;22.15;;;;;;;2.98;100.00;100196.50;5073222;28;20052;-80
2023/02/22 06:08:45;;;;;;;40.38;21.95;;;;;;;2.87;100.00;100169.66;5086059;28;20037;-80
2023/02/22 06:11:13;;;;;;;36.88;22.00;;;;;;;2.87;100.00;100177.50;5077434;28;20136;-80
2023/02/22 06:13:39;;;;;;;44.80;22.42;;;;;;;2.55;100.00;100137.16;5078600;28;20112;-79
2023/02/22 06:16:07;;;;;;;52.95;22.98;;;;;;;2.42;100.00;100112.13;5075735;28;20481;-80
2023/02/22 06:18:34;;;;;;;38.63;23.00;;;;;;;2.57;100.00;100139.75;5074230;28;20041;-80
2023/02/22 06:21:00;;;;;;;43.47;21.67;;;;;;;2.40;100.00;100108.69;5085938;28;20094;-79
2023/02/22 06:23:27;;;;;;;40.42;23.70;;;;;;;2.80;100.00;100171.56;5084501;28;20130;-80
2023/02/22 06:25:54;;;;;;;39.70;24.35;;;;;;;2.50;100.00;100125.06;5078350;28;20090;-80
2023/02/22 06:28:22;;;;;;;38.45;22.92;;;;;;;2.90;100.00;100199.25;5071845;28;20139;-83
2023/02/22 06:30:49;;;;;;;35.33;22.55;;;;;;;2.23;100.00;100074.16;5075561;28;20057;-84
2023/02/22 06:33:16;;;;;;;34.00;22.90;;;;;;;2.61;100.00;100146.66;5076732;28;20183;-82
2023/02/22 06:35:44;;;;;;;35.17;22.25;;;;;;;2.51;100.00;100151.19;5055616;28;20064;-79
2023/02/22 06:38:10;;;;;;;33.58;21.30;;;;;;;2.59;100.00;100148.41;5072386;28;20040;-80
2023/02/22 06:40:37;;;;;;;32.63;20.95;;;;;;;2.69;100.00;100144.72;5072345;28;20099;-80
2023/02/22 06:43:04;;;;;;;32.30;20.92;;;;;;;3.06;100.00;100202.44;5072590;28;20064;-80
2023/02/22 06:45:30;;;;;;;33.78;20.50;;;;;;;2.04;100.00;100029.25;5071484;28;20106;-79
2023/02/22 06:47:57;;;;;;;35.63;22.48;;;;;;;2.22;100.00;100062.84;5069379;28;20106;-79
2023/02/22 06:50:27;;;;;;;30.98;20.45;;;;;;;3.16;100.00;100210.06;5072214;28;20107;-80
2023/02/22 06:52:55;;;;;;;33.42;21.00;;;;;;;3.05;100.00;100193.72;5073622;28;20052;-82
2023/02/22 06:55:27;;;;;;;31.48;19.90;;;;;;;3.20;100.00;100215.25;5071590;28;20465;-80
2023/02/22 06:57:54;;;;;;;45.38;20.48;;;;;;;3.22;100.00;100208.22;5064320;28;20155;-79
2023/02/22 07:00:26;;;;;;;39.90;19.13;;;;;;;3.20;100.00;100217.84;5071701;28;20500;-81
2023/02/22 07:02:53;;;;;;;47.22;20.40;;;;;;;3.25;100.00;100218.63;5065182;28;20098;-80
2023/02/22 07:05:22;;;;;;;30.38;19.67;;;;;;;3.24;100.00;100217.78;5071354;28;20097;-80
2023/02/22 07:07:51;;;;;;;31.75;20.70;;;;;;;3.15;100.00;100187.41;5071187;28;20052;-80
2023/02/22 07:10:21;;;;;;;37.28;20.63;;;;;;;2.96;100.00;100159.03;5071112;28;20156;-81
2023/02/22 07:12:48;;;;;;;36.20;19.77;;;;;;;2.87;100.00;100149.59;5071603;28;20059;-80
2023/02/22 07:15:17;;;;;;;35.60;19.58;;;;;;;2.74;100.00;100120.22;5070949;28;20044;-78
2023/02/22 07:17:43;;;;;;;29.80;19.67;;;;;;;1.61;100.00;99941.25;5071395;28;20048;-80
2023/02/22 07:20:10;;;;;;;31.40;19.70;;;;;;;3.09;100.00;100177.09;5072442;28;20118;-80
2023/02/22 07:22:38;;;;;;;30.58;19.35;;;;;;;3.37;100.00;100223.63;5071974;28;20143;-80
2023/02/22 07:25:10;;;;;;;32.25;19.83;;;;;;;3.35;100.00;100228.00;5073079;28;20046;-80
2023/02/22 07:27:38;;;;;;;28.70;19.05;;;;;;;3.22;100.00;100224.78;5071689;28;20703;-80
2023/02/22 07:30:07;;;;;;;40.50;20.27;;;;;;;3.33;100.00;100237.66;5072872;28;20051;-81
2023/02/22 07:32:34;;;;;;;41.30;19.55;;;;;;;3.27;100.00;100227.31;5070499;28;20408;-79
2023/02/22 07:35:01;;;;;;;30.67;19.10;;;;;;;3.26;100.00;100222.97;5071432;28;20060;-79
2023/02/22 07:37:29;;;;;;;38.75;18.85;;;;;;;3.47;100.00;100256.56;5066317;28;20549;-79
2023/02/22 07:39:55;;;;;;;42.10;20.05;;;;;;;3.15;100.00;100212.69;5070889;28;20685;-79
2023/02/22 07:42:22;;;;;;;41.30;18.42;;;;;;;3.41;100.00;100246.22;5071217;28;20067;-80
2023/02/22 07:44:49;;;;;;;33.17;18.60;;;;;;;3.49;100.00;100245.16;5072589;28;20143;-81
2023/02/22 07:47:15;;;;;;;32.08;19.58;;;;;;;3.56;100.00;100252.91;5072698;28;20055;-78
2023/02/22 07:49:42;;;;;;;29.38;18.10;;;;;;;3.12;100.00;100177.03;5072992;28;20057;-78
2023/02/22 07:52:09;;;;;;;34.83;18.98;;;;;;;3.43;100.00;100223.50;5055993;28;20052;-78
2023/02/22 07:54:35;;;;;;;40.15;18.75;;;;;;;3.54;100.00;100229.38;5073300;28;20135;-80
2023/02/22 07:57:02;;;;;;;27.85;16.70;;;;;;;3.78;100.00;100264.63;5080274;28;20083;-80
2023/02/22 07:59:29;;;;;;;38.90;19.08;;;;;;;3.65;100.00;100240.47;5088104;28;20072;-81
2023/02/22 08:01:55;;;;;;;35.85;18.95;;;;;;;3.68;100.00;100245.66;5086056;28;20068;-78
2023/02/22 08:04:22;;;;;;;44.33;20.42;;;;;;;3.72;100.00;100260.41;5081962;28;20139;-78
2023/02/22 08:06:49;;;;;;;34.10;18.38;;;;;;;3.57;100.00;100231.94;5080689;28;20102;-79
2023/02/22 08:09:16;;;;;;;32.63;19.08;;;;;;;3.28;100.00;100169.72;5076195;28;20041;-79
2023/02/22 08:11:42;;;;;;;28.17;17.85;;;;;;;3.68;100.00;100229.94;5082008;28;20049;-80
2023/02/22 08:14:09;;;;;;;31.23;19.60;;;;;;;3.26;100.00;100147.94;5069050;28;20056;-81
2023/02/22 08:16:35;;;;;;;30.42;18.73;;;;;;;3.60;100.00;100195.22;5070434;28;20055;-79
2023/02/22 08:19:02;;;;;;;32.20;18.42;;;;;;;3.74;100.00;100214.09;5067424;28;20045;-79
2023/02/22 08:21:29;;;;;;;30.35;17.77;;;;;;;3.77;100.00;100223.66;5067564;28;20083;-80
2023/02/22 08:23:57;;;;;;;29.70;18.70;;;;;;;4.08;100.00;100260.50;5060000;28;20070;-79
2023/02/22 08:26:24;;;;;;;29.48;18.33;;;;;;;3.94;100.00;100211.00;5072431;28;20500;-79
2023/02/22 08:28:50;;;;;;;33.13;18.85;;;;;;;4.09;100.00;100215.06;5072555;28;20044;-79
2023/02/22 08:31:17;;;;;;;29.08;18.08;;;;;;;3.78;100.00;100167.72;5071294;28;20100;-79
2023/02/22 08:33:48;;;;;;;27.52;17.52;;;;;;;4.21;100.00;100230.50;5072294;28;20049;-80
2023/02/22 08:36:15;;;;;;;29.25;17.83;;;;;;;4.17;100.00;100195.63;5066707;28;20099;-78
2023/02/22 08:38:42;;;;;;;29.58;18.00;;;;;;;3.72;100.00;100116.38;5071881;28;20131;-81
2023/02/22 08:41:08;;;;;;;29.25;18.25;;;;;;;3.94;100.00;100145.50;5072151;28;20054;-79
2023/02/22 08:43:35;;;;;;;24.92;17.08;;;;;;;4.12;100.00;100163.41;5071541;28;20059;-79
2023/02/22 08:46:01;;;;;;;27.50;17.08;;;;;;;4.66;100.00;100246.84;5072489;28;20087;-78
2023/02/22 08:48:28;;;;;;;26.95;16.75;;;;;;;4.27;100.00;100166.56;5073489;28;20052;-80
2023/02/22 08:50:55;;;;;;;25.70;16.88;;;;;;;4.06;100.00;100095.47;5074095;28;20052;-80
2023/02/22 08:53:22;;;;;;;26.05;18.02;;;;;;;4.43;100.00;100133.81;5075251;28;20170;-80
2023/02/22 08:55:48;;;;;;;27.25;17.65;;;;;;;5.22;100.00;100234.84;5073978;28;20055;-79
2023/02/22 08:58:15;;;;;;;26.33;16.65;;;;;;;4.86;100.00;100158.00;5074292;28;20080;-80
2023/02/22 09:00:43;;;;;;;29.48;18.13;;;;;;;4.56;100.00;100096.72;5074140;28;20059;-78
2023/02/22 09:03:12;;;;;;;31.23;17.42;;;;;;;5.03;100.00;100156.69;5074263;28;20215;-80
2023/02/22 09:05:41;;;;;;;26.52;16.95;;;;;;;5.72;100.00;100250.94;5073288;28;20048;-78
2023/02/22 09:08:07;;;;;;;28.48;17.73;;;;;;;5.92;100.00;100243.34;5074803;28;20056;-81
2023/02/22 09:10:35;;;;;;;27.25;16.83;;;;;;;5.85;100.00;100214.63;5075667;28;20586;-82
2023/02/22 09:13:03;;;;;;;29.65;17.98;;;;;;;6.12;100.00;100239.25;5058156;28;20143;-81
2023/02/22 09:15:31;;;;;;;31.15;17.83;;;;;;;6.18;100.00;100233.78;5075984;28;20148;-82
2023/02/22 09:17:58;;;;;;;28.50;18.00;;;;;;;5.91;100.00;100178.56;5067449;28;20048;-81
2023/02/22 09:20:25;;;;;;;28.27;17.67;;;;;;;6.36;100.00;100230.56;5074104;28;20045;-81
2023/02/22 09:22:54;;;;;;;30.63;18.02;;;;;;;6.34;100.00;100214.84;5074402;28;20048;-81
2023/02/22 09:25:21;;;;;;;27.58;17.52;;;;;;;6.49;100.00;100231.88;5075823;28;20048;-80
2023/02/22 09:27:50;;;;;;;25.77;16.88;;;;;;;6.39;100.00;100195.44;5075170;28;20400;-80
2023/02/22 09:30:32;;;;;;;29.90;18.17;;;;;;;6.32;100.00;100165.84;5075652;28;20070;-78
2023/02/22 09:33:01;;;;;;;29.77;18.08;;;;;;;6.08;100.00;100090.41;5075107;28;20053;-79
2023/02/22 09:35:29;;;;;;;25.57;17.07;;;;;;;6.55;100.00;100154.56;5076150;28;20055;-80
2023/02/22 09:37:57;;;;;;;25.98;17.15;;;;;;;6.29;100.00;100097.59;5074062;28;20144;-80
2023/02/22 09:40:32;;;;;;;27.25;16.77;;;;;;;7.06;100.00;100220.31;5071920;28;20067;-80
2023/02/22 09:43:39;;;;;;;24.88;16.98;;;;;;;7.10;100.00;100200.84;5066269;28;20045;-79
2023/02/22 09:46:28;;;;;;;23.80;16.00;;;;;;;7.29;100.00;100201.03;4965594;28;20058;-80
2023/02/22 09:49:06;;;;;;;23.65;16.52;;;;;;;7.32;100.00;100207.06;5072036;28;20139;-79
2023/02/22 09:51:42;;;;;;;27.00;17.42;;;;;;;7.44;100.00;100205.72;5051301;28;20115;-78
2023/02/22 09:54:33;;;;;;;29.15;17.65;;;;;;;7.59;100.00;100180.59;5066232;28;20048;-81
2023/02/22 09:57:03;;;;;;;28.17;17.92;;;;;;;7.76;100.00;100172.88;5065807;28;20048;-79
2023/02/22 09:59:36;;;;;;;25.83;17.27;;;;;;;7.79;100.00;100162.22;5073248;28;20052;-80
2023/02/22 10:02:30;;;;;;;26.38;18.13;;;;;;;7.70;100.00;100181.06;5069616;28;20123;-79
2023/02/22 10:05:18;;;;;;;28.80;17.95;;;;;;;7.56;100.00;100183.34;5073420;28;20048;-80
2023/02/22 10:07:53;;;;;;;29.52;18.85;;;;;;;7.46;100.00;100196.00;5072876;28;20056;-80
2023/02/22 10:10:22;;;;;;;30.50;19.13;;;;;;;7.32;100.00;100196.53;5074161;28;20059;-81
2023/02/22 10:13:01;;;;;;;29.83;18.88;;;;;;;7.42;100.00;100201.44;5073886;28;20049;-81
2023/02/22 10:15:41;;;;;;;30.35;19.60;;;;;;;7.62;100.00;100198.91;5065921;28;20056;-80
2023/02/22 10:18:38;;;;;;;31.33;18.80;;;;;;;7.91;100.00;100196.00;5072198;28;20057;-79
2023/02/22 10:21:23;;;;;;;31.05;19.10;;;;;;;7.91;100.00;100203.94;5066773;28;20139;-81
2023/02/22 10:23:58;;;;;;;28.25;19.58;;;;;;;7.85;100.00;100203.31;5072785;28;20052;-79
2023/02/22 10:26:31;;;;;;;34.05;20.27;;;;;;;7.72;100.00;100200.28;5073779;28;20139;-79
2023/02/22 10:29:10;;;;;;;29.52;20.08;;;;;;;7.55;100.00;100171.09;5074736;28;20054;-82
2023/02/22 10:31:43;;;;;;;35.38;20.10;;;;;;;7.72;100.00;100201.13;5070564;28;20083;-79
2023/02/22 10:34:22;;;;;;;32.88;20.35;;;;;;;7.39;100.00;100169.06;5077873;28;20143;-79
2023/02/22 10:36:56;;;;;;;34.78;20.83;;;;;;;7.69;100.00;100196.00;5075944;28;20055;-80
2023/02/22 10:39:33;;;;;;;39.80;22.08;;;;;;;7.68;100.00;100209.25;5073806;28;20135;-80
2023/02/22 10:42:05;;;;;;;38.65;22.95;;;;;;;7.38;100.00;100155.94;5073942;28;20048;-81
2023/02/22 10:44:37;;;;;;;37.72;23.30;;;;;;;7.78;100.00;100202.69;5074682;28;20072;-81
2023/02/22 10:47:13;;;;;;;38.97;23.23;;;;;;;7.87;100.00;100189.13;5074033;28;20045;-79
2023/02/22 10:49:49;;;;;;;40.30;24.27;;;;;;;7.77;100.00;100150.88;5073449;28;20063;-79
2023/02/22 10:52:29;;;;;;;44.33;26.00;;;;;;;8.09;100.00;100190.03;5072424;28;20131;-79
2023/02/22 10:54:58;;;;;;;47.78;27.17;;;;;;;8.09;100.00;100166.28;5066923;28;20183;-81
2023/02/22 10:57:43;;;;;;;49.85;28.50;;;;;;;8.48;100.00;100186.72;5086114;28;20066;-80
2023/02/22 11:00:36;;;;;;;53.83;28.55;;;;;;;8.59;100.00;100165.16;5081631;28;20051;-80
2023/02/22 11:03:22;;;;;;;46.45;28.88;;;;;;;8.98;100.00;100167.84;5071584;28;20056;-81
2023/02/22 11:05:49;;;;;;;46.92;29.17;;;;;;;9.06;100.00;100147.25;5086765;28;20119;-81
2023/02/22 11:08:22;;;;;;;53.00;30.33;;;;;;;9.24;100.00;100182.53;5089112;28;20036;-81
2023/02/22 11:10:55;;;;;;;46.45;29.05;;;;;;;8.53;100.00;100063.34;5089535;28;20036;-80
2023/02/22 11:13:27;;;;;;;51.90;29.15;;;;;;;9.45;100.00;100165.69;5083171;28;20048;-80
2023/02/22 11:16:01;;;;;;;52.28;29.23;;;;;;;9.50;100.00;100177.78;5084784;28;20091;-79
2023/02/22 11:18:33;;;;;;;48.33;30.45;;;;;;;9.47;100.00;100170.00;5082611;28;20094;-80
2023/02/22 11:21:03;;;;;;;43.25;27.67;;;;;;;9.10;100.00;100125.06;5077110;28;20127;-82
2023/02/22 11:23:31;;;;;;;44.85;28.70;;;;;;;8.59;100.00;100063.06;5074319;28;20048;-80
2023/02/22 11:26:07;;;;;;;47.35;28.40;;;;;;;9.24;100.00;100166.69;5087209;28;20071;-79
2023/02/22 11:28:35;;;;;;;44.35;27.80;;;;;;;9.37;100.00;100146.72;5084435;28;20049;-80